createdAt,value
2018-03-27T00:00:16.719Z,67.93
2018-03-27T00:01:20.040Z,64.20
2018-03-27T00:02:23.394Z,61.28
2018-03-27T00:03:26.733Z,63.55
2018-03-27T00:04:30.069Z,61.37
2018-03-27T00:05:33.402Z,57.65
2018-03-27T00:06:36.701Z,61.88
2018-03-27T00:07:40.093Z,63.05
2018-03-27T00:08:43.400Z,60.47
2018-03-27T00:09:46.791Z,68.60
2018-03-27T00:10:50.088Z,60.53
2018-03-27T00:11:53.499Z,67.60
2018-03-27T00:12:56.827Z,61.58
2018-03-27T00:14:00.144Z,60.50
2018-03-27T00:15:03.503Z,63.70
2018-03-27T00:16:06.905Z,65.53
2018-03-27T00:17:10.203Z,55.67
2018-03-27T00:18:13.560Z,53.17
2018-03-27T00:19:16.900Z,61.90
2018-03-27T00:20:20.212Z,56.28
2018-03-27T00:21:23.558Z,61.75
2018-03-27T00:22:26.870Z,55.92
2018-03-27T00:23:30.212Z,68.22
2018-03-27T00:24:42.383Z,64.20
2018-03-27T00:25:45.751Z,63.10
2018-03-27T00:27:00.535Z,56.20
2018-03-27T00:28:16.799Z,62.72
2018-03-27T00:29:31.839Z,55.63
2018-03-27T00:30:46.877Z,65.37
2018-03-27T00:32:01.925Z,56.50
2018-03-27T00:33:17.068Z,55.05
2018-03-27T00:34:32.048Z,54.45
2018-03-27T00:35:47.118Z,55.72
2018-03-27T00:37:02.153Z,56.20
2018-03-27T00:38:17.238Z,57.95
2018-03-27T00:39:32.489Z,53.65
2018-03-27T00:40:43.373Z,57.53
2018-03-27T00:43:33.702Z,58.20
2018-03-27T00:44:37.033Z,56.92
2018-03-27T00:45:40.349Z,59.75
2018-03-27T00:46:43.690Z,57.13
2018-03-27T00:47:47.044Z,58.13
2018-03-27T00:48:50.356Z,56.50
2018-03-27T00:49:53.767Z,53.08
2018-03-27T00:50:57.082Z,54.65
2018-03-27T00:52:00.570Z,57.30
2018-03-27T00:53:03.860Z,56.17
2018-03-27T00:54:07.187Z,50.97
2018-03-27T00:55:10.604Z,51.08
2018-03-27T00:56:13.917Z,61.92
2018-03-27T00:57:17.260Z,56.40
2018-03-27T00:58:20.549Z,54.60
2018-03-27T00:59:23.883Z,50.83
2018-03-27T01:00:27.961Z,58.33
2018-03-27T01:01:31.348Z,56.88
2018-03-27T01:02:34.697Z,52.47
2018-03-27T01:03:38.116Z,47.83
2018-03-27T01:04:41.408Z,52.35
2018-03-27T01:05:44.737Z,48.58
2018-03-27T01:06:48.085Z,61.72
2018-03-27T01:07:51.484Z,56.67
2018-03-27T01:08:54.783Z,53.75
2018-03-27T01:09:58.106Z,53.83
2018-03-27T01:11:01.459Z,52.25
2018-03-27T01:12:04.804Z,55.40
2018-03-27T01:13:08.139Z,60.20
2018-03-27T01:14:11.464Z,60.72
2018-03-27T01:15:14.846Z,52.33
2018-03-27T01:16:18.159Z,49.00
2018-03-27T01:17:21.470Z,59.55
2018-03-27T01:18:24.810Z,55.97
2018-03-27T01:19:28.131Z,48.70
2018-03-27T01:20:31.470Z,56.17
2018-03-27T01:21:34.822Z,50.00
2018-03-27T01:22:38.144Z,56.13
2018-03-27T01:23:41.465Z,51.55
2018-03-27T01:24:44.780Z,50.40
2018-03-27T01:25:48.204Z,52.55
2018-03-27T01:26:51.540Z,46.78
2018-03-27T01:27:55.688Z,55.80
2018-03-27T01:28:59.197Z,53.20
2018-03-27T01:30:02.508Z,61.55
2018-03-27T01:31:06.651Z,54.65
2018-03-27T01:32:09.993Z,50.15
2018-03-27T01:33:13.291Z,60.97
2018-03-27T01:34:16.629Z,49.65
2018-03-27T01:35:20.017Z,51.25
2018-03-27T01:36:23.318Z,53.17
2018-03-27T01:37:26.682Z,47.90
2018-03-27T01:38:30.009Z,60.17
2018-03-27T01:39:33.344Z,56.42
2018-03-27T01:40:36.653Z,53.08
2018-03-27T01:41:40.010Z,58.63
2018-03-27T01:42:43.403Z,50.55
2018-03-27T01:43:46.727Z,52.25
2018-03-27T01:44:50.082Z,51.10
2018-03-27T01:45:53.430Z,52.35
2018-03-27T01:46:56.742Z,56.17
2018-03-27T01:48:00.086Z,55.65
2018-03-27T01:49:03.683Z,60.28
2018-03-27T01:50:07.004Z,53.92
2018-03-27T01:51:10.385Z,56.60
2018-03-27T01:52:13.771Z,61.58
2018-03-27T01:53:17.115Z,51.35
2018-03-27T01:54:20.448Z,48.78
2018-03-27T01:55:23.937Z,57.80
2018-03-27T01:56:27.245Z,56.22
2018-03-27T01:57:30.595Z,49.97
2018-03-27T01:58:33.924Z,51.33
2018-03-27T01:59:37.237Z,51.13
2018-03-27T02:00:40.552Z,52.38
2018-03-27T02:01:43.899Z,59.55
2018-03-27T02:02:47.201Z,55.60
2018-03-27T02:03:50.541Z,49.30
2018-03-27T02:04:53.835Z,56.17
2018-03-27T02:05:57.163Z,49.00
2018-03-27T02:07:00.480Z,48.47
2018-03-27T02:08:03.819Z,45.80
2018-03-27T02:09:07.155Z,55.15
2018-03-27T02:10:10.500Z,48.90
2018-03-27T02:11:19.293Z,48.72
2018-03-27T02:12:28.343Z,45.92
2018-03-27T02:13:37.365Z,48.13
2018-03-27T02:14:46.411Z,52.20
2018-03-27T02:15:55.428Z,54.65
2018-03-27T02:17:04.501Z,52.15
2018-03-27T02:18:13.419Z,54.72
2018-03-27T02:19:22.429Z,48.97
2018-03-27T02:20:31.414Z,51.72
2018-03-27T02:21:34.162Z,48.65
2018-03-27T02:22:39.947Z,52.03
2018-03-27T02:23:44.200Z,46.50
2018-03-27T02:24:48.244Z,53.83
2018-03-27T02:25:51.618Z,53.67
2018-03-27T02:26:54.962Z,57.00
2018-03-27T02:27:58.273Z,55.35
2018-03-27T02:29:02.432Z,48.45
2018-03-27T02:30:06.115Z,53.85
2018-03-27T02:31:09.438Z,60.03
2018-03-27T02:32:13.442Z,54.78
2018-03-27T02:33:16.748Z,51.70
2018-03-27T02:34:20.079Z,53.97
2018-03-27T02:35:23.459Z,55.80
2018-03-27T02:36:26.822Z,51.20
2018-03-27T02:37:30.192Z,51.47
2018-03-27T02:38:33.495Z,57.95
2018-03-27T02:39:36.830Z,49.53
2018-03-27T02:40:40.135Z,52.10
2018-03-27T02:41:43.521Z,51.53
2018-03-27T02:42:46.886Z,54.78
2018-03-27T02:43:50.195Z,51.95
2018-03-27T02:44:53.537Z,57.55
2018-03-27T02:45:56.887Z,49.20
2018-03-27T02:47:00.221Z,57.60
2018-03-27T02:48:03.546Z,56.33
2018-03-27T02:49:06.853Z,54.28
2018-03-27T02:50:10.537Z,49.72
2018-03-27T02:51:13.891Z,50.53
2018-03-27T02:52:17.298Z,47.38
2018-03-27T02:53:20.614Z,55.00
2018-03-27T02:54:23.947Z,51.47
2018-03-27T02:55:27.256Z,51.90
2018-03-27T02:56:30.931Z,50.53
2018-03-27T02:57:34.252Z,53.75
2018-03-27T02:58:37.576Z,56.10
2018-03-27T02:59:40.899Z,56.20
2018-03-27T03:00:44.258Z,52.53
2018-03-27T03:01:47.585Z,61.05
2018-03-27T03:02:50.950Z,51.72
2018-03-27T03:03:54.338Z,63.10
2018-03-27T03:04:57.656Z,53.25
2018-03-27T03:06:00.954Z,50.28
2018-03-27T03:07:04.290Z,57.62
2018-03-27T03:08:07.694Z,57.33
2018-03-27T03:09:11.023Z,49.63
2018-03-27T03:10:14.324Z,46.30
2018-03-27T03:11:17.700Z,50.12
2018-03-27T03:12:21.918Z,51.50
2018-03-27T03:13:25.279Z,49.08
2018-03-27T03:14:28.580Z,45.12
2018-03-27T03:15:31.894Z,51.90
2018-03-27T03:16:35.256Z,58.25
2018-03-27T03:17:38.642Z,49.92
2018-03-27T03:18:42.016Z,52.00
2018-03-27T03:19:45.432Z,51.90
2018-03-27T03:20:48.736Z,51.47
2018-03-27T03:21:52.112Z,55.75
2018-03-27T03:22:55.351Z,54.03
2018-03-27T03:23:58.719Z,52.55
2018-03-27T03:25:02.043Z,51.90
2018-03-27T03:26:05.442Z,54.38
2018-03-27T03:27:08.724Z,56.95
2018-03-27T03:28:12.046Z,53.40
2018-03-27T03:29:17.299Z,51.47
2018-03-27T03:30:20.626Z,53.92
2018-03-27T03:31:23.956Z,55.70
2018-03-27T03:32:27.247Z,49.85
2018-03-27T03:33:30.576Z,53.97
2018-03-27T03:34:33.927Z,53.95
2018-03-27T03:35:37.261Z,54.03
2018-03-27T03:36:40.572Z,53.78
2018-03-27T03:37:43.880Z,48.22
2018-03-27T03:38:47.191Z,50.17
2018-03-27T03:39:50.539Z,54.25
2018-03-27T03:40:53.844Z,50.50
2018-03-27T03:41:57.160Z,58.78
2018-03-27T03:43:00.500Z,57.08
2018-03-27T03:44:03.844Z,54.08
2018-03-27T03:45:07.468Z,61.00
2018-03-27T03:46:10.821Z,52.00
2018-03-27T03:47:14.142Z,52.85
2018-03-27T03:48:17.456Z,58.87
2018-03-27T03:49:20.761Z,50.55
2018-03-27T03:50:24.099Z,52.83
2018-03-27T03:51:27.436Z,54.78
2018-03-27T03:52:30.792Z,53.92
2018-03-27T03:53:34.100Z,50.00
2018-03-27T03:54:37.415Z,56.28
2018-03-27T03:55:40.744Z,59.75
2018-03-27T03:56:44.064Z,62.22
2018-03-27T03:57:47.392Z,54.10
2018-03-27T03:58:50.753Z,56.63
2018-03-27T03:59:54.112Z,49.63
2018-03-27T04:00:57.490Z,54.60
2018-03-27T04:02:00.794Z,68.45
2018-03-27T04:03:04.136Z,62.15
2018-03-27T04:04:07.422Z,60.80
2018-03-27T04:05:10.729Z,56.78
2018-03-27T04:06:14.087Z,52.00
2018-03-27T04:07:17.383Z,55.85
2018-03-27T04:08:20.704Z,55.95
2018-03-27T04:09:24.017Z,59.25
2018-03-27T04:10:27.353Z,49.50
2018-03-27T04:11:30.725Z,58.13
2018-03-27T04:12:34.032Z,49.95
2018-03-27T04:13:37.361Z,56.55
2018-03-27T04:14:41.180Z,51.33
2018-03-27T04:15:44.503Z,52.35
2018-03-27T04:16:47.844Z,62.22
2018-03-27T04:17:51.219Z,57.83
2018-03-27T04:18:54.537Z,56.08
2018-03-27T04:19:57.909Z,54.78
2018-03-27T04:21:02.148Z,57.60
2018-03-27T04:22:05.486Z,59.20
2018-03-27T04:23:08.795Z,53.38
2018-03-27T04:24:12.123Z,52.33
2018-03-27T04:25:15.464Z,74.75
2018-03-27T04:26:18.811Z,50.72
2018-03-27T04:27:22.161Z,49.97
2018-03-27T04:28:25.478Z,57.90
2018-03-27T04:29:30.503Z,55.90
2018-03-27T04:30:33.830Z,57.00
2018-03-27T04:31:37.141Z,55.83
2018-03-27T04:32:40.499Z,53.80
2018-03-27T04:33:43.795Z,51.72
2018-03-27T04:34:47.095Z,50.92
2018-03-27T04:35:50.800Z,55.83
2018-03-27T04:36:54.134Z,57.42
2018-03-27T04:37:57.521Z,55.05
2018-03-27T04:39:00.870Z,49.78
2018-03-27T04:40:04.199Z,62.05
2018-03-27T04:41:07.524Z,61.80
2018-03-27T04:42:10.853Z,54.83
2018-03-27T04:43:14.184Z,64.00
2018-03-27T04:44:18.112Z,57.85
2018-03-27T04:45:21.459Z,60.42
2018-03-27T04:46:24.814Z,54.42
2018-03-27T04:47:28.099Z,52.65
2018-03-27T04:48:31.439Z,59.40
2018-03-27T04:49:34.758Z,59.38
2018-03-27T04:50:38.093Z,55.75
2018-03-27T04:51:41.431Z,65.18
2018-03-27T04:52:44.760Z,58.03
2018-03-27T04:53:48.140Z,61.42
2018-03-27T04:54:51.526Z,60.58
2018-03-27T04:55:54.860Z,59.20
2018-03-27T04:56:58.194Z,55.53
2018-03-27T04:58:01.632Z,59.20
2018-03-27T04:59:05.010Z,63.58
2018-03-27T05:00:08.395Z,59.20
2018-03-27T05:01:11.759Z,53.75
2018-03-27T05:02:15.091Z,62.05
2018-03-27T05:03:18.498Z,63.17
2018-03-27T05:04:21.845Z,62.35
2018-03-27T05:05:25.164Z,75.22
2018-03-27T05:06:28.584Z,58.10
2018-03-27T05:07:31.955Z,60.35
2018-03-27T05:08:36.056Z,60.40
2018-03-27T05:09:41.449Z,65.18
2018-03-27T05:10:44.744Z,60.95
2018-03-27T05:11:48.068Z,63.65
2018-03-27T05:12:51.400Z,66.85
2018-03-27T05:13:54.725Z,65.20
2018-03-27T05:14:58.095Z,71.68
2018-03-27T05:16:01.439Z,68.50
2018-03-27T05:17:04.796Z,60.03
2018-03-27T05:18:08.126Z,69.05
2018-03-27T05:19:11.425Z,66.97
2018-03-27T05:20:14.792Z,56.78
2018-03-27T05:21:18.203Z,70.15
2018-03-27T05:22:21.490Z,57.05
2018-03-27T05:23:24.815Z,63.70
2018-03-27T05:24:28.113Z,55.72
2018-03-27T05:25:31.455Z,67.03
2018-03-27T05:26:34.821Z,67.43
2018-03-27T05:27:38.140Z,72.43
2018-03-27T05:28:41.490Z,64.12
2018-03-27T05:29:46.056Z,65.72
2018-03-27T05:30:49.550Z,59.83
2018-03-27T05:31:52.847Z,63.72
2018-03-27T05:32:56.170Z,67.70
2018-03-27T05:33:59.570Z,65.20
2018-03-27T05:35:02.965Z,72.50
2018-03-27T05:36:06.292Z,67.30
2018-03-27T05:37:09.714Z,54.80
2018-03-27T05:38:13.041Z,69.87
2018-03-27T05:39:16.367Z,68.03
2018-03-27T05:40:20.031Z,66.68
2018-03-27T05:41:23.372Z,63.17
2018-03-27T05:42:26.710Z,59.50
2018-03-27T05:43:30.024Z,64.87
2018-03-27T05:44:33.411Z,72.00
2018-03-27T05:45:36.717Z,59.97
2018-03-27T05:46:40.096Z,69.47
2018-03-27T05:47:43.380Z,70.12
2018-03-27T05:48:46.709Z,71.45
2018-03-27T05:49:50.072Z,59.20
2018-03-27T05:50:53.443Z,57.75
2018-03-27T05:51:56.787Z,65.90
2018-03-27T05:53:00.117Z,59.97
2018-03-27T05:54:03.488Z,60.47
2018-03-27T05:55:06.884Z,57.85
2018-03-27T05:56:10.231Z,63.10
2018-03-27T05:57:13.680Z,66.22
2018-03-27T05:58:17.041Z,61.25
2018-03-27T05:59:20.360Z,53.05
2018-03-27T06:00:23.667Z,54.40
2018-03-27T06:01:27.048Z,59.70
2018-03-27T06:02:30.372Z,59.50
2018-03-27T06:03:33.692Z,57.75
2018-03-27T06:04:37.794Z,50.38
2018-03-27T06:05:41.120Z,48.87
2018-03-27T06:06:44.496Z,54.88
2018-03-27T06:07:47.890Z,52.38
2018-03-27T06:08:51.294Z,50.95
2018-03-27T06:09:54.600Z,52.88
2018-03-27T06:10:57.976Z,96.63
2018-03-27T06:12:01.997Z,123.20
2018-03-27T06:13:05.362Z,77.05
2018-03-27T06:14:08.714Z,58.80
2018-03-27T06:15:12.136Z,60.20
2018-03-27T06:16:15.507Z,53.63
2018-03-27T06:17:18.841Z,47.28
2018-03-27T06:18:22.173Z,54.00
2018-03-27T06:19:25.499Z,48.03
2018-03-27T06:20:28.883Z,50.35
2018-03-27T06:21:32.228Z,50.35
2018-03-27T06:22:35.561Z,53.33
2018-03-27T06:23:38.985Z,51.80
2018-03-27T06:24:42.328Z,52.95
2018-03-27T06:25:45.692Z,52.60
2018-03-27T06:26:49.036Z,48.50
2018-03-27T06:27:52.372Z,50.85
2018-03-27T06:28:55.699Z,44.90
2018-03-27T06:29:59.961Z,48.53
2018-03-27T06:31:03.275Z,56.47
2018-03-27T06:32:06.714Z,49.97
2018-03-27T06:33:10.036Z,49.78
2018-03-27T06:34:13.508Z,47.88
2018-03-27T06:35:16.853Z,45.05
2018-03-27T06:36:20.260Z,52.10
2018-03-27T06:37:23.567Z,46.45
2018-03-27T06:38:26.888Z,55.60
2018-03-27T06:39:30.324Z,45.58
2018-03-27T06:40:33.636Z,45.12
2018-03-27T06:41:37.026Z,47.33
2018-03-27T06:42:40.384Z,43.60
2018-03-27T06:43:43.696Z,46.37
2018-03-27T06:44:47.050Z,56.28
2018-03-27T06:45:51.321Z,51.97
2018-03-27T06:46:54.647Z,52.95
2018-03-27T06:47:57.986Z,46.17
2018-03-27T06:49:01.364Z,50.70
2018-03-27T06:50:04.727Z,45.70
2018-03-27T06:51:08.059Z,55.03
2018-03-27T06:52:11.431Z,51.05
2018-03-27T06:53:14.744Z,51.37
2018-03-27T06:54:18.126Z,55.08
2018-03-27T06:55:21.546Z,46.95
2018-03-27T06:56:24.936Z,42.50
2018-03-27T06:57:28.255Z,52.13
2018-03-27T06:58:31.598Z,40.90
2018-03-27T06:59:34.920Z,42.35
2018-03-27T07:00:38.293Z,41.70
2018-03-27T07:01:41.602Z,48.35
2018-03-27T07:02:44.953Z,45.92
2018-03-27T07:03:49.022Z,44.15
2018-03-27T07:04:56.016Z,48.78
2018-03-27T07:05:59.431Z,53.92
2018-03-27T07:07:02.739Z,46.42
2018-03-27T07:08:06.055Z,45.65
2018-03-27T07:09:09.403Z,52.42
2018-03-27T07:10:12.718Z,48.87
2018-03-27T07:11:16.122Z,46.83
2018-03-27T07:12:19.412Z,44.45
2018-03-27T07:13:22.747Z,47.55
2018-03-27T07:14:26.080Z,53.47
2018-03-27T07:15:29.481Z,58.10
2018-03-27T07:16:32.867Z,52.78
2018-03-27T07:17:36.348Z,54.78
2018-03-27T07:18:39.866Z,48.97
2018-03-27T07:19:43.596Z,58.15
2018-03-27T07:20:46.941Z,54.22
2018-03-27T07:21:50.281Z,56.60
2018-03-27T07:22:53.736Z,56.20
2018-03-27T07:23:57.101Z,57.45
2018-03-27T07:25:00.411Z,45.05
2018-03-27T07:26:03.785Z,49.92
2018-03-27T07:27:07.137Z,49.88
2018-03-27T07:28:10.568Z,53.85
2018-03-27T07:29:13.926Z,49.67
2018-03-27T07:30:17.484Z,49.95
2018-03-27T07:31:20.754Z,59.40
2018-03-27T07:32:24.306Z,57.10
2018-03-27T07:33:27.576Z,52.95
2018-03-27T07:34:31.064Z,49.08
2018-03-27T07:35:34.406Z,55.08
2018-03-27T07:36:37.798Z,53.28
2018-03-27T07:37:41.158Z,58.67
2018-03-27T07:38:44.520Z,56.45
2018-03-27T07:39:47.828Z,46.50
2018-03-27T07:40:51.821Z,50.65
2018-03-27T07:41:57.205Z,50.75
2018-03-27T07:43:00.585Z,57.38
2018-03-27T07:44:03.903Z,51.88
2018-03-27T07:45:07.262Z,50.53
2018-03-27T07:46:10.571Z,51.97
2018-03-27T07:47:13.886Z,48.38
2018-03-27T07:48:17.260Z,46.85
2018-03-27T07:49:20.576Z,53.67
2018-03-27T07:50:23.965Z,51.58
2018-03-27T07:51:27.333Z,45.85
2018-03-27T07:52:30.720Z,50.12
2018-03-27T07:53:34.107Z,49.08
2018-03-27T07:54:37.836Z,47.78
2018-03-27T07:55:41.137Z,48.40
2018-03-27T07:56:44.525Z,51.22
2018-03-27T07:57:47.806Z,51.40
2018-03-27T07:58:51.248Z,55.42
2018-03-27T07:59:54.579Z,47.35
2018-03-27T08:00:57.890Z,56.05
2018-03-27T08:02:00.503Z,49.58
2018-03-27T08:03:03.686Z,47.72
2018-03-27T08:04:07.023Z,42.30
2018-03-27T08:05:10.355Z,53.20
2018-03-27T08:06:13.707Z,56.45
2018-03-27T08:07:17.095Z,59.78
2018-03-27T08:08:20.444Z,49.70
2018-03-27T08:09:23.780Z,52.30
2018-03-27T08:10:27.097Z,57.80
2018-03-27T08:11:30.448Z,47.78
2018-03-27T08:12:33.749Z,50.53
2018-03-27T08:13:37.123Z,50.22
2018-03-27T08:14:40.482Z,49.53
2018-03-27T08:15:43.892Z,49.75
2018-03-27T08:16:47.233Z,47.33
2018-03-27T08:17:51.461Z,49.47
2018-03-27T08:18:54.860Z,44.42
2018-03-27T08:19:58.235Z,49.63
2018-03-27T08:21:01.560Z,52.95
2018-03-27T08:22:04.931Z,51.22
2018-03-27T08:23:08.327Z,47.45
2018-03-27T08:24:12.514Z,43.63
2018-03-27T08:25:16.434Z,46.70
2018-03-27T08:26:19.763Z,45.00
2018-03-27T08:27:23.398Z,46.90
2018-03-27T08:28:26.728Z,48.72
2018-03-27T08:29:30.088Z,44.42
2018-03-27T08:30:35.292Z,44.38
2018-03-27T08:31:38.683Z,41.33
2018-03-27T08:32:42.030Z,39.03
2018-03-27T08:33:45.401Z,41.97
2018-03-27T08:34:48.873Z,43.97
2018-03-27T08:35:53.092Z,41.00
2018-03-27T08:36:56.503Z,41.72
2018-03-27T08:37:59.858Z,37.75
2018-03-27T08:39:03.165Z,44.80
2018-03-27T08:40:06.520Z,44.80
2018-03-27T08:41:09.888Z,36.72
2018-03-27T08:42:13.192Z,43.58
2018-03-27T08:43:16.567Z,40.45
2018-03-27T08:44:19.930Z,40.95
2018-03-27T08:45:23.279Z,42.13
2018-03-27T08:46:26.615Z,39.70
2018-03-27T08:47:29.977Z,42.58
2018-03-27T08:48:33.353Z,37.92
2018-03-27T08:49:36.641Z,37.45
2018-03-27T08:50:40.012Z,40.55
2018-03-27T08:51:43.364Z,45.00
2018-03-27T08:52:46.798Z,41.83
2018-03-27T08:53:50.136Z,42.33
2018-03-27T08:54:53.494Z,37.13
2018-03-27T08:55:57.729Z,50.70
2018-03-27T08:57:01.215Z,42.60
2018-03-27T08:58:04.548Z,43.35
2018-03-27T08:59:07.889Z,41.37
2018-03-27T09:00:11.228Z,36.55
2018-03-27T09:01:14.523Z,36.75
2018-03-27T09:02:17.924Z,38.50
2018-03-27T09:03:21.239Z,55.58
2018-03-27T09:04:24.587Z,42.80
2018-03-27T09:05:27.971Z,45.17
2018-03-27T09:06:31.378Z,45.40
2018-03-27T09:07:34.733Z,38.88
2018-03-27T09:08:38.080Z,33.85
2018-03-27T09:09:41.434Z,37.67
2018-03-27T09:10:44.773Z,34.80
2018-03-27T09:11:48.111Z,33.50
2018-03-27T09:12:51.520Z,29.65
2018-03-27T09:13:54.935Z,29.90
2018-03-27T09:14:58.263Z,30.55
2018-03-27T09:16:01.596Z,29.27
2018-03-27T09:17:04.918Z,38.13
2018-03-27T09:18:08.256Z,37.78
2018-03-27T09:19:11.584Z,45.17
2018-03-27T09:20:14.946Z,34.88
2018-03-27T09:21:18.284Z,37.53
2018-03-27T09:22:21.625Z,37.40
2018-03-27T09:23:24.994Z,32.17
2018-03-27T09:24:28.368Z,33.88
2018-03-27T09:25:31.700Z,32.20
2018-03-27T09:26:35.015Z,33.58
2018-03-27T09:27:38.409Z,30.42
2018-03-27T09:28:41.771Z,35.45
2018-03-27T09:29:45.088Z,39.95
2018-03-27T09:30:49.368Z,34.60
2018-03-27T09:31:52.725Z,32.38
2018-03-27T09:32:56.049Z,39.13
2018-03-27T09:33:59.427Z,30.70
2018-03-27T09:35:02.745Z,35.15
2018-03-27T09:36:06.082Z,38.65
2018-03-27T09:37:09.445Z,37.63
2018-03-27T09:38:12.822Z,31.27
2018-03-27T09:39:16.328Z,34.22
2018-03-27T09:40:19.767Z,37.50
2018-03-27T09:41:23.136Z,38.35
2018-03-27T09:42:26.437Z,38.80
2018-03-27T09:43:29.775Z,35.25
2018-03-27T09:44:33.203Z,32.38
2018-03-27T09:45:36.539Z,38.10
2018-03-27T09:46:40.807Z,31.25
2018-03-27T09:47:44.188Z,34.67
2018-03-27T09:48:47.571Z,34.28
2018-03-27T09:49:50.954Z,34.30
2018-03-27T09:50:54.322Z,30.10
2018-03-27T09:51:57.682Z,31.27
2018-03-27T09:53:01.097Z,36.95
2018-03-27T09:54:04.444Z,31.80
2018-03-27T09:55:07.811Z,41.53
2018-03-27T09:56:11.135Z,37.78
2018-03-27T09:57:14.481Z,40.35
2018-03-27T09:58:17.818Z,34.35
2018-03-27T09:59:21.533Z,32.65
2018-03-27T10:00:30.590Z,32.40
2018-03-27T10:01:40.354Z,36.38
2018-03-27T10:02:43.652Z,35.33
2018-03-27T10:03:46.985Z,29.08
2018-03-27T10:04:50.574Z,27.77
2018-03-27T10:05:53.904Z,26.90
2018-03-27T10:06:57.237Z,31.90
2018-03-27T10:08:00.632Z,25.33
2018-03-27T10:09:04.084Z,42.05
2018-03-27T10:10:07.461Z,39.95
2018-03-27T10:11:10.841Z,31.37
2018-03-27T10:12:14.219Z,35.67
2018-03-27T10:13:17.532Z,22.30
2018-03-27T10:14:20.855Z,27.80
2018-03-27T10:15:24.184Z,30.37
2018-03-27T10:16:27.622Z,27.25
2018-03-27T10:17:31.024Z,29.85
2018-03-27T10:18:34.368Z,30.35
2018-03-27T10:19:37.692Z,31.65
2018-03-27T10:20:41.041Z,36.15
2018-03-27T10:21:44.488Z,25.88
2018-03-27T10:22:47.814Z,32.88
2018-03-27T10:23:51.164Z,36.17
2018-03-27T10:24:54.511Z,30.30
2018-03-27T10:25:57.903Z,27.42
2018-03-27T10:27:01.308Z,30.10
2018-03-27T10:28:04.717Z,31.73
2018-03-27T10:29:08.023Z,32.92
2018-03-27T10:30:11.363Z,43.08
2018-03-27T10:31:15.918Z,36.65
2018-03-27T10:32:19.282Z,27.70
2018-03-27T10:33:22.620Z,32.80
2018-03-27T10:34:26.034Z,32.38
2018-03-27T10:35:29.359Z,30.90
2018-03-27T10:36:32.707Z,32.67
2018-03-27T10:37:36.029Z,42.92
2018-03-27T10:38:39.396Z,38.40
2018-03-27T10:39:42.728Z,33.00
2018-03-27T10:40:46.061Z,33.28
2018-03-27T10:41:49.401Z,33.88
2018-03-27T10:42:52.746Z,38.35
2018-03-27T10:43:56.175Z,24.52
2018-03-27T10:44:59.524Z,33.97
2018-03-27T10:46:02.885Z,31.73
2018-03-27T10:47:06.185Z,34.20
2018-03-27T10:48:09.600Z,33.28
2018-03-27T10:49:12.935Z,42.80
2018-03-27T10:50:16.239Z,40.33
2018-03-27T10:51:19.565Z,31.70
2018-03-27T10:52:22.928Z,30.15
2018-03-27T10:53:26.465Z,29.60
2018-03-27T10:54:29.763Z,32.92
2018-03-27T10:55:33.152Z,25.08
2018-03-27T10:56:36.613Z,19.85
2018-03-27T10:57:39.991Z,26.90
2018-03-27T10:58:43.396Z,31.62
2018-03-27T10:59:46.711Z,27.87
2018-03-27T11:00:50.048Z,43.95
2018-03-27T11:01:53.419Z,23.73
2018-03-27T11:02:56.799Z,23.38
2018-03-27T11:04:00.258Z,23.55
2018-03-27T11:05:03.602Z,21.27
2018-03-27T11:06:06.960Z,19.87
2018-03-27T11:07:10.265Z,26.92
2018-03-27T11:08:13.605Z,23.98
2018-03-27T11:09:16.953Z,25.65
2018-03-27T11:10:20.298Z,19.87
2018-03-27T11:11:23.640Z,27.45
2018-03-27T11:12:27.066Z,29.92
2018-03-27T11:13:30.661Z,32.22
2018-03-27T11:14:34.023Z,20.10
2018-03-27T11:15:37.460Z,22.45
2018-03-27T11:16:40.809Z,17.80
2018-03-27T11:17:44.157Z,18.75
2018-03-27T11:18:47.484Z,19.42
2018-03-27T11:19:50.893Z,21.17
2018-03-27T11:20:54.217Z,22.02
2018-03-27T11:21:58.656Z,22.67
2018-03-27T11:23:02.537Z,20.80
2018-03-27T11:24:05.853Z,19.02
2018-03-27T11:25:09.242Z,22.27
2018-03-27T11:26:12.628Z,21.65
2018-03-27T11:27:16.006Z,24.08
2018-03-27T11:28:19.309Z,24.58
2018-03-27T11:29:22.705Z,22.20
2018-03-27T11:30:26.125Z,22.92
2018-03-27T11:31:29.419Z,19.10
2018-03-27T11:32:32.752Z,19.85
2018-03-27T11:33:36.114Z,23.35
2018-03-27T11:34:39.472Z,20.67
2018-03-27T11:35:42.828Z,20.60
2018-03-27T11:36:46.211Z,27.52
2018-03-27T11:37:49.535Z,20.55
2018-03-27T11:38:52.960Z,21.60
2018-03-27T11:39:56.255Z,23.42
2018-03-27T11:40:59.591Z,22.37
2018-03-27T11:42:02.922Z,20.08
2018-03-27T11:43:06.302Z,19.45
2018-03-27T11:44:09.617Z,21.42
2018-03-27T11:45:12.979Z,32.00
2018-03-27T11:46:16.342Z,17.50
2018-03-27T11:47:19.652Z,22.05
2018-03-27T11:48:23.030Z,18.27
2018-03-27T11:49:26.405Z,23.90
2018-03-27T11:50:29.713Z,17.55
2018-03-27T11:51:33.080Z,20.85
2018-03-27T11:52:36.421Z,23.05
2018-03-27T11:53:39.825Z,28.62
2018-03-27T11:54:43.116Z,24.27
2018-03-27T11:55:46.435Z,16.92
2018-03-27T11:56:49.786Z,24.50
2018-03-27T11:57:53.182Z,17.83
2018-03-27T11:58:56.556Z,14.93
2018-03-27T12:00:00.280Z,20.77
2018-03-27T12:01:03.581Z,17.12
2018-03-27T12:02:06.999Z,18.33
2018-03-27T12:03:10.885Z,17.00
2018-03-27T12:04:14.266Z,15.77
2018-03-27T12:05:17.576Z,28.77
2018-03-27T12:06:20.926Z,20.45
2018-03-27T12:07:24.283Z,22.98
2018-03-27T12:08:27.650Z,19.35
2018-03-27T12:09:30.981Z,23.08
2018-03-27T12:10:34.348Z,17.75
2018-03-27T12:11:37.673Z,19.65
2018-03-27T12:12:41.020Z,20.30
2018-03-27T12:13:44.321Z,28.08
2018-03-27T12:14:47.632Z,24.20
2018-03-27T12:15:50.996Z,29.70
2018-03-27T12:16:54.325Z,19.23
2018-03-27T12:17:57.693Z,21.92
2018-03-27T12:19:01.387Z,21.58
2018-03-27T12:20:04.784Z,20.65
2018-03-27T12:21:08.122Z,25.02
2018-03-27T12:22:11.432Z,21.17
2018-03-27T12:23:14.847Z,21.92
2018-03-27T12:24:18.189Z,29.15
2018-03-27T12:25:21.512Z,21.35
2018-03-27T12:26:24.920Z,25.20
2018-03-27T12:27:28.348Z,23.92
2018-03-27T12:28:31.732Z,23.42
2018-03-27T12:29:35.065Z,23.52
2018-03-27T12:30:38.449Z,20.27
2018-03-27T12:31:43.498Z,26.95
2018-03-27T12:32:46.844Z,21.67
2018-03-27T12:33:50.235Z,28.38
2018-03-27T12:34:53.568Z,27.90
2018-03-27T12:35:56.940Z,26.73
2018-03-27T12:37:00.290Z,22.98
2018-03-27T12:38:03.603Z,19.27
2018-03-27T12:39:07.277Z,25.08
2018-03-27T12:40:11.405Z,29.37
2018-03-27T12:41:14.786Z,29.27
2018-03-27T12:42:18.181Z,20.20
2018-03-27T12:43:21.440Z,28.05
2018-03-27T12:44:24.849Z,22.08
2018-03-27T12:45:28.139Z,26.87
2018-03-27T12:46:31.487Z,21.60
2018-03-27T12:47:34.792Z,29.75
2018-03-27T12:48:38.141Z,28.35
2018-03-27T12:49:41.530Z,24.30
2018-03-27T12:50:45.198Z,26.52
2018-03-27T12:51:48.549Z,26.45
2018-03-27T12:52:51.871Z,27.60
2018-03-27T12:53:55.273Z,24.37
2018-03-27T12:54:58.620Z,25.30
2018-03-27T12:56:02.006Z,30.37
2018-03-27T12:57:05.309Z,32.20
2018-03-27T12:58:08.749Z,29.30
2018-03-27T12:59:12.104Z,24.60
2018-03-27T13:00:15.452Z,27.77
2018-03-27T13:01:18.802Z,24.95
2018-03-27T13:02:22.103Z,26.27
2018-03-27T13:03:25.448Z,22.23
2018-03-27T13:04:28.825Z,23.45
2018-03-27T13:05:32.246Z,28.83
2018-03-27T13:06:35.533Z,30.15
2018-03-27T13:07:38.841Z,27.92
2018-03-27T13:08:42.203Z,26.05
2018-03-27T13:09:45.515Z,27.25
2018-03-27T13:10:48.948Z,26.50
2018-03-27T13:11:52.300Z,28.92
2018-03-27T13:12:55.699Z,25.12
2018-03-27T13:13:58.996Z,35.42
2018-03-27T13:15:02.328Z,32.15
2018-03-27T13:16:05.720Z,22.02
2018-03-27T13:17:09.068Z,22.45
2018-03-27T13:18:12.425Z,26.27
2018-03-27T13:19:15.803Z,25.08
2018-03-27T13:20:19.111Z,33.40
2018-03-27T13:21:22.584Z,24.20
2018-03-27T13:22:25.956Z,26.08
2018-03-27T13:23:29.308Z,25.58
2018-03-27T13:24:32.694Z,33.80
2018-03-27T13:25:36.041Z,29.77
2018-03-27T13:26:39.408Z,24.60
2018-03-27T13:27:42.892Z,23.75
2018-03-27T13:28:46.226Z,26.50
2018-03-27T13:29:49.546Z,23.05
2018-03-27T13:30:52.875Z,28.30
2018-03-27T13:31:57.868Z,27.98
2018-03-27T13:33:01.284Z,29.27
2018-03-27T13:34:04.606Z,26.10
2018-03-27T13:35:07.974Z,31.87
2018-03-27T13:36:11.313Z,29.77
2018-03-27T13:37:14.765Z,36.67
2018-03-27T13:38:18.114Z,29.45
2018-03-27T13:39:21.473Z,30.17
2018-03-27T13:40:24.814Z,30.73
2018-03-27T13:41:28.158Z,28.05